Time;durP1;ratioP1;P1;durP2;ratioP2;P2;SDS_P1;SDS_P2;PMS_P1;PMS_P2;Temp;Humidity;BMP_temperature;BMP_pressure;BME280_temperature;BME280_humidity;BME280_pressure;Samples;Min_cycle;Max_cycle;Signal;HPM_P1;HPM_P2
2022/03/04 00:00:31;;;;;;;16.92;8.55;;;;;;;;;;5056375;28;20079;-72
2022/03/04 00:02:56;;;;;;;17.80;8.68;;;;;;;;;;5054990;28;20073;-73
2022/03/04 00:05:22;;;;;;;12.82;8.15;;;;;;;;;;5070428;28;20435;-72
2022/03/04 00:07:47;;;;;;;16.05;8.00;;;;;;;;;;5071721;28;20024;-73
2022/03/04 00:10:12;;;;;;;13.20;8.02;;;;;;;;;;5064786;28;20491;-72
2022/03/04 00:12:37;;;;;;;13.88;7.78;;;;;;;;;;5063586;28;20052;-73
2022/03/04 00:15:03;;;;;;;18.98;8.52;;;;;;;;;;5066635;28;20120;-73
2022/03/04 00:17:28;;;;;;;15.02;8.35;;;;;;;;;;5068100;28;20036;-73
2022/03/04 00:19:53;;;;;;;14.48;7.97;;;;;;;;;;5060002;28;20021;-73
2022/03/04 00:22:18;;;;;;;17.10;8.90;;;;;;;;;;5071384;28;20024;-73
2022/03/04 00:24:44;;;;;;;21.73;9.02;;;;;;;;;;5071453;28;20024;-73
2022/03/04 00:27:09;;;;;;;17.38;8.73;;;;;;;;;;5059539;28;20028;-72
2022/03/04 00:29:34;;;;;;;13.95;8.00;;;;;;;;;;5088733;28;20084;-71
2022/03/04 00:32:00;;;;;;;13.15;8.43;;;;;;;;;;5090106;28;20510;-73
2022/03/04 00:34:25;;;;;;;13.02;8.05;;;;;;;;;;5090991;28;20052;-72
2022/03/04 00:36:50;;;;;;;15.95;8.45;;;;;;;;;;5091123;28;20347;-72
2022/03/04 00:39:16;;;;;;;17.13;9.13;;;;;;;;;;5089821;28;20027;-72
2022/03/04 00:41:41;;;;;;;13.93;8.40;;;;;;;;;;5090000;28;20051;-72
2022/03/04 00:44:06;;;;;;;17.08;8.48;;;;;;;;;;5089883;28;20111;-72
2022/03/04 00:46:31;;;;;;;18.15;9.13;;;;;;;;;;5091393;28;20043;-71
2022/03/04 00:48:57;;;;;;;15.93;8.68;;;;;;;;;;5090904;28;20024;-72
2022/03/04 00:51:22;;;;;;;17.88;9.70;;;;;;;;;;5090714;28;20081;-72
2022/03/04 00:53:47;;;;;;;19.35;9.63;;;;;;;;;;5091038;28;20046;-72
2022/03/04 00:56:12;;;;;;;18.95;9.88;;;;;;;;;;5090851;28;20399;-72
2022/03/04 00:58:38;;;;;;;17.17;9.63;;;;;;;;;;5090777;28;20020;-73
2022/03/04 01:01:03;;;;;;;18.95;9.13;;;;;;;;;;5089838;28;20036;-72
2022/03/04 01:03:28;;;;;;;17.15;9.65;;;;;;;;;;5089600;28;20146;-71
2022/03/04 01:05:54;;;;;;;18.33;9.98;;;;;;;;;;5090651;28;20107;-73
2022/03/04 01:08:19;;;;;;;21.23;10.48;;;;;;;;;;5072110;28;20388;-72
2022/03/04 01:10:44;;;;;;;17.42;9.63;;;;;;;;;;5089290;28;20019;-73
2022/03/04 01:13:09;;;;;;;19.17;10.13;;;;;;;;;;5072433;28;20060;-72
2022/03/04 01:15:35;;;;;;;20.50;9.88;;;;;;;;;;5090503;28;20031;-72
2022/03/04 01:18:00;;;;;;;16.08;9.25;;;;;;;;;;5090463;28;20024;-72
2022/03/04 01:20:25;;;;;;;18.45;10.52;;;;;;;;;;5090523;28;20556;-71
2022/03/04 01:22:50;;;;;;;24.63;10.60;;;;;;;;;;5090410;28;20036;-72
2022/03/04 01:25:16;;;;;;;20.98;11.00;;;;;;;;;;5090286;28;20059;-72
2022/03/04 01:27:41;;;;;;;22.83;10.30;;;;;;;;;;5090222;28;20032;-72
2022/03/04 01:30:07;;;;;;;21.98;10.00;;;;;;;;;;5088267;28;20043;-70
2022/03/04 01:32:32;;;;;;;21.15;10.02;;;;;;;;;;5088820;28;20512;-72
2022/03/04 01:34:57;;;;;;;18.15;9.88;;;;;;;;;;5088627;28;20488;-72
2022/03/04 01:37:22;;;;;;;19.15;9.82;;;;;;;;;;5074599;28;20020;-72
2022/03/04 01:39:47;;;;;;;22.60;10.32;;;;;;;;;;5068677;28;20024;-72
2022/03/04 01:42:13;;;;;;;20.08;10.73;;;;;;;;;;5055497;28;20025;-72
2022/03/04 01:44:39;;;;;;;23.05;10.35;;;;;;;;;;5049998;28;20033;-72
2022/03/04 01:47:05;;;;;;;14.98;9.18;;;;;;;;;;5049685;28;20520;-72
2022/03/04 01:49:30;;;;;;;18.63;9.40;;;;;;;;;;5065239;28;20053;-72
2022/03/04 01:51:55;;;;;;;20.35;10.45;;;;;;;;;;5065122;28;20070;-71
2022/03/04 01:54:20;;;;;;;16.83;10.07;;;;;;;;;;5049772;28;20028;-72
2022/03/04 01:56:46;;;;;;;17.80;10.07;;;;;;;;;;5048839;28;20034;-72
2022/03/04 01:59:11;;;;;;;17.70;9.65;;;;;;;;;;5049067;28;20611;-71
2022/03/04 02:01:36;;;;;;;17.75;9.70;;;;;;;;;;5047381;28;20117;-70
2022/03/04 02:04:01;;;;;;;25.25;10.93;;;;;;;;;;5049661;28;20029;-72
2022/03/04 02:06:26;;;;;;;18.42;10.30;;;;;;;;;;5049618;28;20029;-71
2022/03/04 02:08:52;;;;;;;17.08;9.45;;;;;;;;;;5049573;28;20029;-72
2022/03/04 02:11:17;;;;;;;19.17;9.77;;;;;;;;;;5065106;28;20544;-71
2022/03/04 02:13:43;;;;;;;18.17;9.23;;;;;;;;;;5049733;28;20021;-72
2022/03/04 02:16:37;;;;;;;18.67;10.30;;;;;;;;;;5049626;28;20028;-72
2022/03/04 02:19:03;;;;;;;17.83;9.73;;;;;;;;;;5040237;28;20044;-72
2022/03/04 02:21:28;;;;;;;15.65;9.85;;;;;;;;;;5051547;28;20401;-72
2022/03/04 02:23:53;;;;;;;21.00;9.50;;;;;;;;;;5068624;28;20111;-72
2022/03/04 02:26:18;;;;;;;18.67;10.90;;;;;;;;;;5053119;28;20509;-72
2022/03/04 02:28:45;;;;;;;21.67;10.63;;;;;;;;;;5053346;28;20040;-72
2022/03/04 02:31:13;;;;;;;21.60;10.48;;;;;;;;;;5052341;28;20037;-70
2022/03/04 02:33:38;;;;;;;22.52;11.77;;;;;;;;;;5052022;28;20317;-72
2022/03/04 02:36:03;;;;;;;23.77;11.55;;;;;;;;;;5053503;28;20435;-71
2022/03/04 02:38:28;;;;;;;22.83;11.90;;;;;;;;;;5068374;28;20370;-69
2022/03/04 02:40:53;;;;;;;19.00;10.70;;;;;;;;;;5053174;28;20086;-71
2022/03/04 02:43:19;;;;;;;23.90;11.20;;;;;;;;;;5053394;28;20029;-71
2022/03/04 02:45:44;;;;;;;23.35;11.60;;;;;;;;;;5052741;28;20025;-72
2022/03/04 02:48:09;;;;;;;20.95;10.52;;;;;;;;;;5067906;28;20441;-70
2022/03/04 02:50:34;;;;;;;20.08;11.27;;;;;;;;;;5052674;28;20053;-71
2022/03/04 02:52:59;;;;;;;24.90;10.63;;;;;;;;;;5053142;28;20024;-70
2022/03/04 02:55:25;;;;;;;19.73;9.65;;;;;;;;;;5052629;28;20056;-72
2022/03/04 02:57:50;;;;;;;22.67;11.55;;;;;;;;;;5052828;28;20494;-70
2022/03/04 03:00:15;;;;;;;19.35;10.70;;;;;;;;;;5051825;28;20027;-72
2022/03/04 03:02:41;;;;;;;22.20;11.07;;;;;;;;;;5068302;28;20099;-72
2022/03/04 03:05:06;;;;;;;20.58;11.25;;;;;;;;;;5052666;28;20029;-70
2022/03/04 03:07:32;;;;;;;24.48;11.90;;;;;;;;;;5052758;28;20412;-71
2022/03/04 03:09:57;;;;;;;20.45;11.25;;;;;;;;;;5067979;28;20029;-71
2022/03/04 03:12:22;;;;;;;24.52;11.35;;;;;;;;;;5052591;28;20025;-72
2022/03/04 03:14:47;;;;;;;17.85;10.93;;;;;;;;;;5067785;28;20439;-72
2022/03/04 03:17:13;;;;;;;21.70;11.38;;;;;;;;;;5067941;28;20108;-71
2022/03/04 03:19:38;;;;;;;23.10;10.82;;;;;;;;;;5052499;28;20371;-71
2022/03/04 03:22:03;;;;;;;21.88;11.32;;;;;;;;;;5052451;28;20025;-72
2022/03/04 03:24:29;;;;;;;20.10;11.55;;;;;;;;;;5067713;28;20654;-71
2022/03/04 03:26:54;;;;;;;25.23;12.85;;;;;;;;;;5067973;28;20554;-71
2022/03/04 03:29:19;;;;;;;21.30;11.38;;;;;;;;;;5067649;28;20033;-71
2022/03/04 03:31:44;;;;;;;25.38;12.13;;;;;;;;;;5049729;28;20029;-70
2022/03/04 03:34:09;;;;;;;21.50;11.68;;;;;;;;;;5050696;28;20021;-71
2022/03/04 03:36:34;;;;;;;25.88;12.43;;;;;;;;;;5051769;28;20567;-70
2022/03/04 03:39:00;;;;;;;21.85;11.77;;;;;;;;;;5052327;28;20029;-72
2022/03/04 03:41:25;;;;;;;23.55;12.18;;;;;;;;;;5052190;28;20031;-71
2022/03/04 03:43:50;;;;;;;25.58;11.63;;;;;;;;;;5052032;28;20079;-72
2022/03/04 03:46:15;;;;;;;21.90;12.35;;;;;;;;;;5051475;28;20017;-70
2022/03/04 03:48:41;;;;;;;26.75;12.95;;;;;;;;;;5051518;28;20052;-71
2022/03/04 03:51:06;;;;;;;25.52;12.32;;;;;;;;;;5050140;28;20033;-71
2022/03/04 03:53:32;;;;;;;24.17;13.07;;;;;;;;;;5067365;28;20115;-70
2022/03/04 03:55:57;;;;;;;25.90;12.88;;;;;;;;;;5051775;28;20104;-72
2022/03/04 03:58:22;;;;;;;26.55;12.10;;;;;;;;;;5051667;28;20017;-70
2022/03/04 04:00:47;;;;;;;23.85;11.80;;;;;;;;;;5050946;28;20041;-71
2022/03/04 04:03:13;;;;;;;26.88;12.15;;;;;;;;;;5051614;28;20070;-70
2022/03/04 04:05:38;;;;;;;23.90;11.48;;;;;;;;;;5051730;28;20040;-70
2022/03/04 04:08:03;;;;;;;23.15;11.65;;;;;;;;;;5051409;28;20043;-72
2022/03/04 04:10:28;;;;;;;24.30;12.05;;;;;;;;;;5051648;28;20021;-70
2022/03/04 04:12:54;;;;;;;21.40;11.32;;;;;;;;;;5051621;28;20025;-71
2022/03/04 04:15:19;;;;;;;23.38;11.98;;;;;;;;;;5066823;28;20085;-71
2022/03/04 04:17:44;;;;;;;23.27;11.20;;;;;;;;;;5051387;28;20025;-70
2022/03/04 04:20:09;;;;;;;22.60;11.95;;;;;;;;;;5051402;28;20025;-71
2022/03/04 04:22:35;;;;;;;26.60;11.95;;;;;;;;;;5051175;28;20033;-71
2022/03/04 04:25:00;;;;;;;22.40;11.50;;;;;;;;;;5049927;28;20404;-71
2022/03/04 04:27:25;;;;;;;30.98;12.77;;;;;;;;;;5050941;28;20028;-71
2022/03/04 04:29:50;;;;;;;19.05;11.30;;;;;;;;;;5066472;28;20025;-71
2022/03/04 04:32:15;;;;;;;20.40;10.68;;;;;;;;;;5050283;28;20490;-71
2022/03/04 04:34:41;;;;;;;26.17;11.90;;;;;;;;;;5051038;28;20063;-71
2022/03/04 04:37:06;;;;;;;25.38;12.25;;;;;;;;;;5050987;28;20124;-71
2022/03/04 04:39:31;;;;;;;23.95;12.40;;;;;;;;;;5051021;28;20461;-71
2022/03/04 04:41:56;;;;;;;24.15;12.15;;;;;;;;;;5050941;28;20013;-69
2022/03/04 04:44:21;;;;;;;30.65;13.23;;;;;;;;;;5065769;28;20017;-70
2022/03/04 04:46:47;;;;;;;25.48;11.93;;;;;;;;;;5050762;28;20522;-69
2022/03/04 04:49:12;;;;;;;27.48;12.43;;;;;;;;;;5050603;28;20021;-71
2022/03/04 04:51:37;;;;;;;30.35;13.18;;;;;;;;;;5050711;28;20071;-70
2022/03/04 04:54:02;;;;;;;24.17;11.98;;;;;;;;;;5066358;28;20428;-71
2022/03/04 04:56:27;;;;;;;25.27;13.00;;;;;;;;;;5050983;28;20025;-69
2022/03/04 04:58:53;;;;;;;23.83;12.15;;;;;;;;;;5050815;28;20028;-71
2022/03/04 05:01:18;;;;;;;23.05;11.55;;;;;;;;;;5049820;28;20268;-70
2022/03/04 05:03:44;;;;;;;27.58;13.13;;;;;;;;;;5051705;28;20017;-71
2022/03/04 05:06:09;;;;;;;30.73;13.73;;;;;;;;;;5070664;28;20392;-71
2022/03/04 05:08:34;;;;;;;19.55;10.68;;;;;;;;;;5059376;28;20100;-71
2022/03/04 05:11:00;;;;;;;22.60;10.77;;;;;;;;;;5058822;28;20017;-71
2022/03/04 05:13:26;;;;;;;21.27;10.88;;;;;;;;;;5050657;28;20460;-70
2022/03/04 05:15:51;;;;;;;24.48;11.82;;;;;;;;;;5050403;28;20025;-69
2022/03/04 05:18:16;;;;;;;24.77;10.90;;;;;;;;;;5055241;28;20023;-71
2022/03/04 05:20:41;;;;;;;22.88;11.65;;;;;;;;;;5069177;28;20021;-71
2022/03/04 05:23:06;;;;;;;24.85;11.68;;;;;;;;;;5069116;28;20504;-71
2022/03/04 05:25:32;;;;;;;22.35;11.95;;;;;;;;;;5069087;28;20111;-70
2022/03/04 05:27:57;;;;;;;22.92;10.95;;;;;;;;;;5070110;28;20155;-72
2022/03/04 05:30:22;;;;;;;25.13;11.55;;;;;;;;;;5069371;28;20051;-71
2022/03/04 05:32:47;;;;;;;20.98;11.25;;;;;;;;;;5068913;28;20047;-71
2022/03/04 05:35:13;;;;;;;21.73;11.38;;;;;;;;;;5070206;28;20123;-70
2022/03/04 05:37:38;;;;;;;22.17;12.00;;;;;;;;;;5070155;28;20025;-68
2022/03/04 05:40:04;;;;;;;24.70;11.65;;;;;;;;;;5062265;28;20040;-71
2022/03/04 05:42:30;;;;;;;24.27;12.57;;;;;;;;;;5063438;28;20025;-72
2022/03/04 05:44:55;;;;;;;26.63;12.32;;;;;;;;;;5067059;28;20036;-71
2022/03/04 05:47:20;;;;;;;25.60;11.77;;;;;;;;;;5064538;28;20024;-72
2022/03/04 05:49:45;;;;;;;31.45;12.65;;;;;;;;;;5059899;28;20041;-72
2022/03/04 05:52:10;;;;;;;25.42;12.57;;;;;;;;;;5064386;28;20037;-72
2022/03/04 05:54:36;;;;;;;20.60;12.05;;;;;;;;;;5066549;28;20020;-71
2022/03/04 05:57:01;;;;;;;26.90;13.07;;;;;;;;;;5067243;28;20025;-72
2022/03/04 05:59:26;;;;;;;26.02;11.73;;;;;;;;;;5052415;28;20461;-72
2022/03/04 06:01:52;;;;;;;26.73;13.65;;;;;;;;;;5063252;28;20033;-71
2022/03/04 06:04:17;;;;;;;28.08;12.40;;;;;;;;;;5064522;28;20051;-72
2022/03/04 06:06:42;;;;;;;27.02;13.23;;;;;;;;;;5065771;28;20032;-71
2022/03/04 06:09:08;;;;;;;26.38;12.88;;;;;;;;;;5065021;28;20031;-72
2022/03/04 06:11:33;;;;;;;30.63;13.43;;;;;;;;;;5060028;28;20525;-72
2022/03/04 06:13:58;;;;;;;26.77;13.55;;;;;;;;;;5063369;28;20028;-71
2022/03/04 06:16:23;;;;;;;29.85;13.65;;;;;;;;;;5061812;28;20112;-72
2022/03/04 06:18:48;;;;;;;27.30;13.50;;;;;;;;;;5060449;28;20028;-71
2022/03/04 06:21:14;;;;;;;24.30;12.90;;;;;;;;;;5062622;28;20512;-72
2022/03/04 06:23:39;;;;;;;27.95;13.52;;;;;;;;;;5046746;28;20052;-71
2022/03/04 06:26:04;;;;;;;27.27;13.55;;;;;;;;;;5061708;28;20054;-72
2022/03/04 06:28:29;;;;;;;31.65;14.75;;;;;;;;;;5066105;28;20021;-72
2022/03/04 06:30:55;;;;;;;28.60;14.25;;;;;;;;;;5060877;28;20136;-70
2022/03/04 06:33:32;;;;;;;27.40;13.73;;;;;;;;;;5061722;28;20380;-72
2022/03/04 06:36:04;;;;;;;31.08;14.75;;;;;;;;;;5063051;28;20020;-72
2022/03/04 06:38:29;;;;;;;31.15;15.32;;;;;;;;;;5060490;28;20048;-72
2022/03/04 06:40:55;;;;;;;26.23;14.77;;;;;;;;;;5061132;28;20051;-72
2022/03/04 06:43:20;;;;;;;28.23;14.77;;;;;;;;;;5062549;28;20396;-72
2022/03/04 06:45:46;;;;;;;28.60;14.77;;;;;;;;;;5062377;28;20025;-72
2022/03/04 06:48:11;;;;;;;29.48;15.25;;;;;;;;;;5058420;28;20112;-72
2022/03/04 06:50:36;;;;;;;34.95;16.60;;;;;;;;;;5060685;28;20386;-70
2022/03/04 06:53:02;;;;;;;34.92;15.77;;;;;;;;;;5062622;28;20027;-72
2022/03/04 06:55:27;;;;;;;33.63;15.13;;;;;;;;;;5061775;28;20013;-72
2022/03/04 06:57:54;;;;;;;27.48;14.48;;;;;;;;;;5062080;28;20373;-72
2022/03/04 07:00:19;;;;;;;31.90;14.27;;;;;;;;;;5058977;28;20159;-72
2022/03/04 07:02:44;;;;;;;28.58;12.90;;;;;;;;;;5060945;28;20140;-72
2022/03/04 07:05:10;;;;;;;26.10;13.68;;;;;;;;;;5062582;28;20533;-72
2022/03/04 07:07:35;;;;;;;28.13;13.57;;;;;;;;;;5060907;28;20028;-72
2022/03/04 07:10:00;;;;;;;24.33;12.10;;;;;;;;;;5066029;28;20054;-71
2022/03/04 07:12:25;;;;;;;29.98;14.18;;;;;;;;;;5063245;28;20032;-72
2022/03/04 07:14:51;;;;;;;27.23;12.82;;;;;;;;;;5066549;28;20111;-72
2022/03/04 07:17:16;;;;;;;27.67;13.40;;;;;;;;;;5064570;28;20103;-71
2022/03/04 07:19:41;;;;;;;25.92;12.95;;;;;;;;;;5064385;28;20684;-71
2022/03/04 07:22:06;;;;;;;24.08;12.80;;;;;;;;;;5065117;28;20994;-72
2022/03/04 07:24:32;;;;;;;25.88;12.65;;;;;;;;;;5067606;28;20033;-71
2022/03/04 07:26:58;;;;;;;33.72;13.40;;;;;;;;;;5065160;28;20036;-72
2022/03/04 07:29:23;;;;;;;26.40;13.35;;;;;;;;;;5061348;28;20025;-72
2022/03/04 07:31:50;;;;;;;25.63;13.63;;;;;;;;;;5069018;28;20094;-71
2022/03/04 07:34:15;;;;;;;22.67;12.98;;;;;;;;;;5050405;28;20020;-72
2022/03/04 07:36:40;;;;;;;25.40;12.57;;;;;;;;;;5070311;28;20471;-72
2022/03/04 07:39:05;;;;;;;27.17;14.27;;;;;;;;;;5069519;28;20024;-72
2022/03/04 07:41:30;;;;;;;29.20;14.45;;;;;;;;;;5067765;28;20032;-71
2022/03/04 07:43:56;;;;;;;29.17;14.35;;;;;;;;;;5062151;28;20074;-72
2022/03/04 07:46:22;;;;;;;28.83;14.27;;;;;;;;;;5047472;28;20029;-72
2022/03/04 07:48:47;;;;;;;27.98;13.85;;;;;;;;;;5064426;28;20029;-72
2022/03/04 07:51:12;;;;;;;28.63;14.63;;;;;;;;;;5068707;28;20016;-72
2022/03/04 07:53:38;;;;;;;27.60;14.75;;;;;;;;;;5065789;28;20024;-72
2022/03/04 07:56:03;;;;;;;32.78;15.82;;;;;;;;;;5040652;28;20719;-71
2022/03/04 07:58:28;;;;;;;33.90;15.73;;;;;;;;;;5060708;28;20012;-72
2022/03/04 08:00:53;;;;;;;30.80;15.52;;;;;;;;;;5064406;28;20043;-72
2022/03/04 08:03:19;;;;;;;27.90;14.57;;;;;;;;;;5065756;28;20032;-71
2022/03/04 08:05:44;;;;;;;27.73;14.88;;;;;;;;;;5048073;28;20092;-71
2022/03/04 08:08:09;;;;;;;30.85;15.10;;;;;;;;;;5047396;28;20040;-72
2022/03/04 08:10:35;;;;;;;38.60;15.95;;;;;;;;;;5063514;28;20029;-71
2022/03/04 08:13:00;;;;;;;32.00;16.35;;;;;;;;;;5065246;28;20035;-71
2022/03/04 08:15:26;;;;;;;31.65;15.05;;;;;;;;;;5068899;28;20115;-71
2022/03/04 08:17:51;;;;;;;32.20;15.48;;;;;;;;;;5046831;28;20348;-72
2022/03/04 08:20:16;;;;;;;29.92;15.75;;;;;;;;;;5048923;28;20462;-70
2022/03/04 08:22:41;;;;;;;30.95;15.63;;;;;;;;;;5064359;28;20028;-72
2022/03/04 08:25:07;;;;;;;29.77;15.05;;;;;;;;;;5042392;28;20049;-72
2022/03/04 08:27:35;;;;;;;30.90;14.25;;;;;;;;;;5028449;28;20063;-72
2022/03/04 08:30:01;;;;;;;29.88;14.38;;;;;;;;;;5064115;28;20480;-72
2022/03/04 08:32:26;;;;;;;28.30;14.35;;;;;;;;;;5049347;28;20041;-72
2022/03/04 08:34:51;;;;;;;27.52;13.88;;;;;;;;;;5067741;28;20047;-72
2022/03/04 08:37:16;;;;;;;25.15;13.80;;;;;;;;;;5062425;28;20023;-72
2022/03/04 08:39:42;;;;;;;38.10;14.20;;;;;;;;;;5061968;28;20019;-71
2022/03/04 08:42:07;;;;;;;28.02;11.85;;;;;;;;;;5065158;28;20032;-72
2022/03/04 08:44:32;;;;;;;25.08;12.63;;;;;;;;;;5044857;28;20096;-71
2022/03/04 08:46:57;;;;;;;25.08;13.05;;;;;;;;;;5060833;28;20496;-72
2022/03/04 08:49:23;;;;;;;25.48;12.93;;;;;;;;;;5051440;28;20432;-71
2022/03/04 08:51:48;;;;;;;28.23;13.32;;;;;;;;;;5061756;28;20034;-72
2022/03/04 08:54:13;;;;;;;23.65;11.82;;;;;;;;;;5056809;28;20072;-72
2022/03/04 08:56:38;;;;;;;22.73;11.90;;;;;;;;;;5065238;28;20028;-71
2022/03/04 08:59:03;;;;;;;22.40;11.80;;;;;;;;;;5061946;28;20020;-72
2022/03/04 09:01:29;;;;;;;21.73;11.18;;;;;;;;;;5066908;28;20095;-72
2022/03/04 09:03:54;;;;;;;32.15;10.63;;;;;;;;;;5064747;28;20031;-72
2022/03/04 09:06:19;;;;;;;21.20;11.45;;;;;;;;;;5066302;28;20025;-71
2022/03/04 09:08:45;;;;;;;23.33;10.80;;;;;;;;;;5061982;28;20031;-72
2022/03/04 09:11:10;;;;;;;23.33;12.38;;;;;;;;;;5061986;28;20427;-72
2022/03/04 09:13:35;;;;;;;23.08;11.43;;;;;;;;;;5058768;28;20016;-72
2022/03/04 09:16:00;;;;;;;21.25;11.90;;;;;;;;;;5063480;28;20074;-72
2022/03/04 09:18:26;;;;;;;23.83;11.77;;;;;;;;;;5060892;28;20123;-71
2022/03/04 09:20:51;;;;;;;22.48;11.38;;;;;;;;;;5062286;28;20079;-72
2022/03/04 09:23:16;;;;;;;21.90;12.32;;;;;;;;;;5061979;28;20073;-72
2022/03/04 09:25:41;;;;;;;24.85;14.13;;;;;;;;;;5050260;28;20016;-71
2022/03/04 09:28:07;;;;;;;23.35;12.18;;;;;;;;;;5059515;28;20438;-72
2022/03/04 09:30:33;;;;;;;23.05;12.18;;;;;;;;;;5063650;28;20373;-72
2022/03/04 09:32:58;;;;;;;21.55;12.27;;;;;;;;;;5065157;28;20016;-73
2022/03/04 09:35:24;;;;;;;21.92;11.70;;;;;;;;;;5061914;28;20070;-72
2022/03/04 09:37:49;;;;;;;24.63;11.85;;;;;;;;;;5062654;28;20154;-72
2022/03/04 09:40:14;;;;;;;22.17;10.50;;;;;;;;;;5062028;28;20484;-72
2022/03/04 09:42:39;;;;;;;23.10;11.30;;;;;;;;;;5041619;28;20032;-72
2022/03/04 09:45:05;;;;;;;22.02;11.65;;;;;;;;;;5064903;28;20035;-72
2022/03/04 09:47:30;;;;;;;20.58;11.93;;;;;;;;;;5063567;28;20028;-71
2022/03/04 09:49:58;;;;;;;25.52;12.05;;;;;;;;;;5060769;28;20474;-71
2022/03/04 09:52:23;;;;;;;22.50;11.77;;;;;;;;;;5063497;28;20078;-72
2022/03/04 09:54:48;;;;;;;22.67;11.90;;;;;;;;;;5062962;28;20474;-71
2022/03/04 09:57:14;;;;;;;21.15;11.82;;;;;;;;;;5067950;28;20074;-71
2022/03/04 09:59:40;;;;;;;25.48;11.90;;;;;;;;;;5064554;28;20350;-71
2022/03/04 10:02:05;;;;;;;23.60;12.20;;;;;;;;;;5061802;28;20082;-72
2022/03/04 10:04:33;;;;;;;28.15;12.80;;;;;;;;;;5064486;28;20149;-72
2022/03/04 10:07:07;;;;;;;19.92;11.63;;;;;;;;;;5063444;28;20029;-72
2022/03/04 10:09:42;;;;;;;;;;;;;;;;;;5067339;28;20031;-72
2022/03/04 10:12:08;;;;;;;21.73;12.32;;;;;;;;;;5063394;28;19920;-72
2022/03/04 10:14:33;;;;;;;25.33;13.02;;;;;;;;;;5044319;28;20035;-72
2022/03/04 10:16:58;;;;;;;33.95;12.77;;;;;;;;;;5060953;28;20054;-72
2022/03/04 10:19:24;;;;;;;22.15;12.10;;;;;;;;;;5048492;28;20024;-72
2022/03/04 10:22:00;;;;;;;24.77;12.25;;;;;;;;;;5062549;28;20576;-72
2022/03/04 10:24:29;;;;;;;22.65;12.75;;;;;;;;;;5062008;28;20024;-72
2022/03/04 10:26:58;;;;;;;29.02;12.30;;;;;;;;;;5060988;28;20033;-72
2022/03/04 10:29:24;;;;;;;26.02;13.00;;;;;;;;;;5067328;28;20032;-71
2022/03/04 10:32:13;;;;;;;25.75;12.90;;;;;;;;;;5060059;28;20041;-71
2022/03/04 10:34:58;;;;;;;23.00;12.23;;;;;;;;;;5045504;28;20047;-72
2022/03/04 10:37:44;;;;;;;23.58;11.18;;;;;;;;;;5060320;28;20103;-71
2022/03/04 10:40:17;;;;;;;24.15;12.25;;;;;;;;;;5058182;28;20023;-72
2022/03/04 10:42:44;;;;;;;21.25;11.55;;;;;;;;;;5079767;28;20024;-72
2022/03/04 10:45:11;;;;;;;25.48;12.27;;;;;;;;;;5067420;28;20028;-73
2022/03/04 10:47:57;;;;;;;23.25;12.52;;;;;;;;;;5063474;28;20509;-72
2022/03/04 10:50:34;;;;;;;28.00;12.70;;;;;;;;;;5068395;28;20144;-72
2022/03/04 10:53:03;;;;;;;28.65;11.52;;;;;;;;;;5067705;28;20436;-72
2022/03/04 10:55:40;;;;;;;23.67;11.95;;;;;;;;;;5065878;28;20024;-71
2022/03/04 10:58:08;;;;;;;20.35;11.23;;;;;;;;;;5053155;28;20400;-72
2022/03/04 11:00:35;;;;;;;20.15;10.90;;;;;;;;;;5067798;28;20074;-71
2022/03/04 11:03:00;;;;;;;22.15;10.93;;;;;;;;;;5066881;28;20031;-72
2022/03/04 11:05:26;;;;;;;23.27;12.02;;;;;;;;;;5071078;28;20400;-72
2022/03/04 11:07:51;;;;;;;24.48;12.07;;;;;;;;;;5070164;28;20120;-72
2022/03/04 11:10:17;;;;;;;24.00;11.43;;;;;;;;;;5066652;28;20028;-72
2022/03/04 11:12:44;;;;;;;21.50;11.73;;;;;;;;;;5069241;28;20032;-72
2022/03/04 11:15:11;;;;;;;30.38;10.90;;;;;;;;;;5063974;28;20028;-72
2022/03/04 11:17:37;;;;;;;20.73;9.70;;;;;;;;;;5048221;28;20035;-71
2022/03/04 11:20:03;;;;;;;20.35;10.07;;;;;;;;;;5064070;28;20067;-72
2022/03/04 11:22:28;;;;;;;16.33;9.13;;;;;;;;;;5062260;28;20028;-72
2022/03/04 11:24:57;;;;;;;17.13;9.32;;;;;;;;;;5048956;28;20402;-73
2022/03/04 11:27:22;;;;;;;16.65;9.40;;;;;;;;;;5052420;28;20036;-73
2022/03/04 11:29:47;;;;;;;20.88;11.05;;;;;;;;;;5049264;28;20033;-72
2022/03/04 11:32:12;;;;;;;20.60;10.80;;;;;;;;;;5070567;28;20036;-73
2022/03/04 11:34:42;;;;;;;25.20;12.43;;;;;;;;;;5047535;28;20021;-72
2022/03/04 11:37:18;;;;;;;22.83;12.90;;;;;;;;;;5069861;28;20563;-72
2022/03/04 11:39:59;;;;;;;22.52;9.93;;;;;;;;;;5070507;28;20024;-71
2022/03/04 11:42:27;;;;;;;18.48;9.68;;;;;;;;;;5062356;28;20024;-72
2022/03/04 11:44:55;;;;;;;20.02;10.23;;;;;;;;;;5062223;28;20109;-73
2022/03/04 11:47:21;;;;;;;18.10;10.02;;;;;;;;;;5068910;28;20075;-73
2022/03/04 11:49:47;;;;;;;22.40;10.88;;;;;;;;;;5062448;28;20028;-72
2022/03/04 11:52:21;;;;;;;21.35;11.30;;;;;;;;;;5061671;28;20020;-72
2022/03/04 11:54:49;;;;;;;18.65;10.93;;;;;;;;;;5050490;28;20070;-73
2022/03/04 11:57:21;;;;;;;22.50;10.23;;;;;;;;;;5060300;28;20031;-71
2022/03/04 12:00:11;;;;;;;19.33;9.40;;;;;;;;;;5067835;28;20086;-72
2022/03/04 12:02:38;;;;;;;18.02;8.65;;;;;;;;;;5037381;28;20033;-71
2022/03/04 12:05:12;;;;;;;20.58;9.73;;;;;;;;;;5065064;28;20116;-72
2022/03/04 12:07:39;;;;;;;18.42;8.88;;;;;;;;;;5061829;28;20044;-72
2022/03/04 12:10:08;;;;;;;17.92;9.30;;;;;;;;;;5040415;28;20473;-72
2022/03/04 12:12:33;;;;;;;18.42;9.32;;;;;;;;;;5064899;28;20423;-72
2022/03/04 12:15:17;;;;;;;17.48;8.88;;;;;;;;;;5033501;28;20017;-71
2022/03/04 12:17:52;;;;;;;17.23;8.48;;;;;;;;;;5066645;28;20466;-70
2022/03/04 12:20:27;;;;;;;17.48;8.50;;;;;;;;;;5060949;28;20020;-72
2022/03/04 12:22:56;;;;;;;17.33;9.20;;;;;;;;;;5050382;28;20039;-71
2022/03/04 12:25:21;;;;;;;15.25;9.27;;;;;;;;;;5061760;28;20118;-71
2022/03/04 12:27:47;;;;;;;13.50;7.85;;;;;;;;;;5065145;28;20501;-71
2022/03/04 12:30:20;;;;;;;17.00;8.77;;;;;;;;;;5045025;28;20032;-72
2022/03/04 12:32:47;;;;;;;18.23;8.90;;;;;;;;;;5063416;28;20020;-72
2022/03/04 12:35:16;;;;;;;13.45;8.25;;;;;;;;;;5062375;28;20056;-71
2022/03/04 12:37:42;;;;;;;13.48;8.25;;;;;;;;;;5063420;28;20035;-72
2022/03/04 12:40:08;;;;;;;15.63;8.45;;;;;;;;;;5061080;28;20016;-72
2022/03/04 12:42:34;;;;;;;17.45;8.30;;;;;;;;;;5064011;28;20103;-71
2022/03/04 12:44:59;;;;;;;15.82;8.38;;;;;;;;;;5048160;28;20485;-74
2022/03/04 12:47:24;;;;;;;17.70;9.40;;;;;;;;;;5063678;28;20025;-73
2022/03/04 12:49:52;;;;;;;17.42;9.13;;;;;;;;;;5069733;28;20020;-74
2022/03/04 12:52:19;;;;;;;16.27;9.35;;;;;;;;;;5062932;28;20528;-73
2022/03/04 12:54:45;;;;;;;18.05;9.10;;;;;;;;;;5060984;28;20040;-71
2022/03/04 12:57:10;;;;;;;17.00;9.65;;;;;;;;;;5043609;28;20102;-72
2022/03/04 12:59:43;;;;;;;17.35;9.20;;;;;;;;;;5063169;28;20020;-75
2022/03/04 13:02:08;;;;;;;15.85;9.07;;;;;;;;;;5041072;28;20029;-71
2022/03/04 13:04:34;;;;;;;15.30;9.43;;;;;;;;;;5058817;28;20027;-72
2022/03/04 13:07:00;;;;;;;14.70;8.50;;;;;;;;;;5063508;28;20028;-71
2022/03/04 13:09:25;;;;;;;15.68;8.70;;;;;;;;;;5065748;28;20016;-69
2022/03/04 13:11:52;;;;;;;21.65;8.38;;;;;;;;;;5060887;28;20073;-72
2022/03/04 13:14:18;;;;;;;14.27;7.80;;;;;;;;;;5051978;28;20020;-71
2022/03/04 13:16:48;;;;;;;11.88;7.93;;;;;;;;;;5050872;28;20520;-72
2022/03/04 13:19:17;;;;;;;12.57;7.57;;;;;;;;;;5064733;28;20376;-72
2022/03/04 13:21:44;;;;;;;11.85;7.50;;;;;;;;;;5063399;28;20143;-72
2022/03/04 13:24:33;;;;;;;11.95;7.40;;;;;;;;;;5048248;28;20055;-72
2022/03/04 13:27:04;;;;;;;14.43;7.93;;;;;;;;;;5063417;28;20029;-72
2022/03/04 13:29:34;;;;;;;14.68;8.40;;;;;;;;;;5064420;28;20024;-72
2022/03/04 13:32:06;;;;;;;15.00;8.15;;;;;;;;;;5062059;28;20047;-73
2022/03/04 13:34:31;;;;;;;14.77;7.85;;;;;;;;;;5065151;28;20145;-72
2022/03/04 13:37:00;;;;;;;19.05;10.02;;;;;;;;;;5065341;28;20567;-71
2022/03/04 13:39:27;;;;;;;16.58;9.88;;;;;;;;;;5062032;28;20081;-72
2022/03/04 13:42:11;;;;;;;15.98;9.02;;;;;;;;;;5065434;28;20103;-73
2022/03/04 13:45:21;;;;;;;17.05;9.45;;;;;;;;;;5064435;28;20112;-71
2022/03/04 13:47:54;;;;;;;14.65;9.57;;;;;;;;;;5063574;28;20037;-72
2022/03/04 13:50:26;;;;;;;16.60;9.13;;;;;;;;;;5061495;28;20028;-72
2022/03/04 13:53:05;;;;;;;15.98;9.23;;;;;;;;;;5060234;28;20025;-72
2022/03/04 13:55:34;;;;;;;14.32;9.90;;;;;;;;;;5066954;28;20483;-72
2022/03/04 13:58:16;;;;;;;13.20;9.07;;;;;;;;;;5062563;28;20104;-73
2022/03/04 14:00:41;;;;;;;13.13;9.00;;;;;;;;;;5063122;28;20029;-72
2022/03/04 14:03:08;;;;;;;18.13;10.57;;;;;;;;;;5062045;28;20040;-71
2022/03/04 14:05:41;;;;;;;17.33;10.50;;;;;;;;;;5063969;28;20020;-73
2022/03/04 14:08:10;;;;;;;17.08;9.93;;;;;;;;;;5065209;28;20029;-72
2022/03/04 14:10:36;;;;;;;16.05;9.93;;;;;;;;;;5046014;28;20044;-72
2022/03/04 14:13:03;;;;;;;16.30;10.25;;;;;;;;;;5062406;28;20398;-71
2022/03/04 14:15:28;;;;;;;19.77;10.30;;;;;;;;;;5064655;28;20028;-72
2022/03/04 14:17:57;;;;;;;21.17;9.70;;;;;;;;;;5054310;28;20021;-72